Terminal Aerodrome Forecast
Issued by NWS Grand Forks, ND

Home | Current Version | Previous Version | Graphics & Text | Print | Product List | Glossary On
Versions: 1 2 3 4 5 6 7 8 9 10 11 12 13 14 15 16 17
000
FTUS43 KFGF 101129
TAFGFK
TAF
KGFK 101129Z 1012/1112 VRB05KT P6SM SCT017
      TEMPO 1012/1014 BKN017
     FM110100 08006KT P6SM BKN035
     FM110400 07007KT P6SM OVC015
     FM110700 07007KT 3SM -SN OVC015
     FM111000 06008KT 1 1/2SM -SN OVC012=

USA.gov is the U.S. government's official web portal to all federal, state and local government web resources and services.